createdAt,value
2017-11-13T00:00:25.162Z,7.29
2017-11-13T00:01:39.409Z,7.31
2017-11-13T00:02:53.771Z,7.34
2017-11-13T00:04:08.631Z,7.37
2017-11-13T00:05:23.989Z,7.4
2017-11-13T00:06:38.488Z,7.43
2017-11-13T00:07:53.383Z,7.47
2017-11-13T00:09:08.861Z,7.49
2017-11-13T00:10:23.893Z,7.51
2017-11-13T00:11:39.628Z,7.51
2017-11-13T00:12:54.620Z,7.52
2017-11-13T00:14:10.959Z,7.51
2017-11-13T00:15:27.200Z,7.51
2017-11-13T00:16:42.769Z,7.52
2017-11-13T00:17:58.872Z,7.53
2017-11-13T00:19:14.004Z,7.52
2017-11-13T00:20:28.244Z,7.5
2017-11-13T00:21:42.435Z,7.51
2017-11-13T00:22:56.827Z,7.51
2017-11-13T00:24:11.128Z,7.53
2017-11-13T00:25:25.314Z,7.53
2017-11-13T00:26:40.087Z,7.53
2017-11-13T00:27:54.310Z,7.53
2017-11-13T00:29:08.651Z,7.53
2017-11-13T00:30:23.005Z,7.57
2017-11-13T00:31:37.216Z,7.58
2017-11-13T00:32:51.415Z,7.59
2017-11-13T00:34:05.813Z,7.61
2017-11-13T00:35:19.993Z,7.65
2017-11-13T00:36:34.187Z,7.67
2017-11-13T00:37:48.536Z,7.69
2017-11-13T00:39:03.359Z,7.7
2017-11-13T00:40:17.562Z,7.69
2017-11-13T00:41:31.745Z,7.68
2017-11-13T00:45:01.883Z,7.67
2017-11-13T00:46:16.688Z,7.67
2017-11-13T00:47:30.984Z,7.68
2017-11-13T00:50:30.246Z,7.76
2017-11-13T00:51:44.641Z,7.79
2017-11-13T00:52:58.829Z,7.82
2017-11-13T00:54:13.493Z,7.84
2017-11-13T00:55:28.181Z,7.86
2017-11-13T00:56:42.386Z,7.89
2017-11-13T00:57:56.632Z,7.89
2017-11-13T00:59:11.612Z,7.89
2017-11-13T01:00:40.751Z,7.89
2017-11-13T01:01:54.951Z,7.88
2017-11-13T01:03:10.117Z,7.86
2017-11-13T01:04:24.519Z,7.84
2017-11-13T01:05:39.882Z,7.81
2017-11-13T01:06:54.067Z,7.79
2017-11-13T01:08:08.296Z,7.77
2017-11-13T01:09:22.776Z,7.75
2017-11-13T01:10:37.419Z,7.75
2017-11-13T01:11:52.041Z,7.74
2017-11-13T01:13:06.243Z,7.74
2017-11-13T01:14:20.543Z,7.74
2017-11-13T01:15:34.881Z,7.74
2017-11-13T01:16:49.093Z,7.71
2017-11-13T01:18:03.289Z,7.75
2017-11-13T01:19:17.476Z,7.74
2017-11-13T01:20:32.057Z,7.74
2017-11-13T01:21:46.487Z,7.74
2017-11-13T01:23:01.107Z,7.76
2017-11-13T01:24:15.316Z,7.79
2017-11-13T01:25:29.692Z,7.81
2017-11-13T01:26:43.865Z,7.83
2017-11-13T01:27:58.045Z,7.85
2017-11-13T01:29:12.550Z,7.87
2017-11-13T01:30:27.034Z,7.89
2017-11-13T01:31:41.257Z,7.88
2017-11-13T01:32:55.515Z,7.86
2017-11-13T01:34:09.725Z,7.85
2017-11-13T01:35:24.315Z,7.82
2017-11-13T01:36:38.963Z,7.81
2017-11-13T01:37:53.198Z,7.78
2017-11-13T01:42:43.343Z,7.71
2017-11-13T01:44:35.723Z,7.71
2017-11-13T01:45:50.051Z,7.71
2017-11-13T01:47:04.264Z,7.69
2017-11-13T01:48:18.587Z,7.67
2017-11-13T01:49:32.760Z,7.65
2017-11-13T01:50:47.325Z,7.65
2017-11-13T01:52:01.710Z,7.64
2017-11-13T01:53:16.267Z,7.65
2017-11-13T01:54:30.568Z,7.66
2017-11-13T01:55:44.822Z,7.68
2017-11-13T01:57:30.924Z,7.7
2017-11-13T01:58:45.238Z,7.7
2017-11-13T01:59:59.529Z,7.73
2017-11-13T02:01:14.315Z,7.73
2017-11-13T02:02:28.528Z,7.73
2017-11-13T02:03:43.299Z,7.73
2017-11-13T02:04:57.495Z,7.73
2017-11-13T02:06:11.757Z,7.74
2017-11-13T02:07:26.408Z,7.75
2017-11-13T02:08:40.615Z,7.75
2017-11-13T02:09:54.922Z,7.77
2017-11-13T02:11:09.836Z,7.75
2017-11-13T02:12:24.148Z,7.74
2017-11-13T02:13:38.374Z,7.73
2017-11-13T02:14:52.674Z,7.74
2017-11-13T02:16:06.877Z,7.73
2017-11-13T02:17:21.159Z,7.69
2017-11-13T02:18:35.484Z,7.7
2017-11-13T02:19:50.389Z,7.68
2017-11-13T02:21:04.718Z,7.69
2017-11-13T02:22:18.999Z,7.71
2017-11-13T02:23:33.194Z,7.73
2017-11-13T02:24:47.399Z,7.74
2017-11-13T02:26:01.659Z,7.75
2017-11-13T02:27:16.118Z,7.77
2017-11-13T02:28:30.342Z,7.77
2017-11-13T02:29:44.904Z,7.77
2017-11-13T02:30:59.091Z,7.78
2017-11-13T02:32:14.033Z,7.78
2017-11-13T02:33:28.937Z,7.8
2017-11-13T02:34:43.139Z,7.83
2017-11-13T02:35:57.322Z,7.85
2017-11-13T02:37:11.601Z,7.89
2017-11-13T02:38:26.033Z,7.9
2017-11-13T02:39:40.218Z,7.94
2017-11-13T02:40:54.421Z,7.95
2017-11-13T02:42:08.613Z,7.94
2017-11-13T02:43:23.019Z,7.94
2017-11-13T02:44:37.228Z,7.92
2017-11-13T02:45:51.425Z,7.9
2017-11-13T02:47:05.643Z,7.86
2017-11-13T02:48:20.512Z,7.82
2017-11-13T02:49:34.719Z,7.8
2017-11-13T02:50:48.905Z,7.76
2017-11-13T02:52:03.507Z,7.73
2017-11-13T02:53:17.869Z,7.69
2017-11-13T02:54:32.098Z,7.66
2017-11-13T02:55:46.275Z,7.63
2017-11-13T02:57:00.608Z,7.61
2017-11-13T02:58:14.809Z,7.59
2017-11-13T02:59:29.206Z,7.57
2017-11-13T03:00:43.401Z,7.54
2017-11-13T03:01:57.595Z,7.49
2017-11-13T03:03:11.842Z,7.46
2017-11-13T03:04:26.018Z,7.44
2017-11-13T03:05:40.988Z,7.42
2017-11-13T03:06:55.587Z,7.42
2017-11-13T03:08:09.798Z,7.44
2017-11-13T03:09:24.087Z,7.44
2017-11-13T03:10:38.280Z,7.44
2017-11-13T03:11:52.518Z,7.47
2017-11-13T03:13:06.711Z,7.46
2017-11-13T03:14:21.216Z,7.45
2017-11-13T03:15:35.724Z,7.44
2017-11-13T03:16:49.931Z,7.42
2017-11-13T03:18:04.176Z,7.41
2017-11-13T03:19:33.151Z,7.4
2017-11-13T03:20:47.401Z,7.38
2017-11-13T03:22:02.444Z,7.38
2017-11-13T03:23:16.627Z,7.38
2017-11-13T03:24:31.052Z,7.42
2017-11-13T03:25:45.638Z,7.43
2017-11-13T03:27:00.387Z,7.44
2017-11-13T03:28:15.102Z,7.45
2017-11-13T03:29:29.531Z,7.44
2017-11-13T03:30:43.708Z,7.46
2017-11-13T03:31:58.680Z,7.48
2017-11-13T03:33:12.920Z,7.5
2017-11-13T03:34:27.117Z,7.52
2017-11-13T03:35:41.392Z,7.54
2017-11-13T03:36:55.593Z,7.56
2017-11-13T03:38:09.809Z,7.57
2017-11-13T03:39:23.997Z,7.59
2017-11-13T03:40:38.386Z,7.61
2017-11-13T03:41:52.583Z,7.64
2017-11-13T03:43:06.771Z,7.69
2017-11-13T03:44:21.244Z,7.75
2017-11-13T03:45:35.540Z,7.8
2017-11-13T03:46:49.850Z,7.86
2017-11-13T03:48:04.558Z,7.9
2017-11-13T03:49:19.334Z,7.93
2017-11-13T03:50:34.468Z,7.95
2017-11-13T03:51:48.731Z,7.97
2017-11-13T03:53:03.015Z,7.98
2017-11-13T03:54:17.306Z,8.05
2017-11-13T03:55:32.230Z,8.1
2017-11-13T03:56:47.164Z,8.15
2017-11-13T03:58:01.357Z,8.18
2017-11-13T03:59:15.577Z,8.18
2017-11-13T04:00:29.915Z,8.18
2017-11-13T04:01:44.524Z,8.18
2017-11-13T04:02:58.707Z,8.18
2017-11-13T04:04:12.893Z,8.15
2017-11-13T04:05:27.241Z,8.13
2017-11-13T04:06:41.555Z,8.12
2017-11-13T04:07:55.746Z,8.12
2017-11-13T04:09:09.942Z,8.14
2017-11-13T04:10:24.131Z,8.14
2017-11-13T04:11:38.957Z,8.17
2017-11-13T04:12:53.171Z,8.2
2017-11-13T04:14:07.348Z,8.22
2017-11-13T04:15:21.960Z,8.23
2017-11-13T04:16:36.352Z,8.24
2017-11-13T04:17:50.716Z,8.25
2017-11-13T04:19:04.904Z,8.24
2017-11-13T04:20:19.120Z,8.22
2017-11-13T04:21:33.513Z,8.21
2017-11-13T04:22:47.700Z,8.18
2017-11-13T04:24:01.942Z,8.17
2017-11-13T04:25:16.214Z,8.14
2017-11-13T04:26:30.471Z,8.12
2017-11-13T04:27:44.739Z,8.11
2017-11-13T04:28:58.983Z,8.11
2017-11-13T04:30:13.124Z,8.09
2017-11-13T04:31:27.713Z,8.08
2017-11-13T04:32:42.056Z,8.06
2017-11-13T04:33:56.271Z,8.02
2017-11-13T04:35:10.573Z,8
2017-11-13T04:36:24.905Z,7.96
2017-11-13T04:37:39.297Z,7.93
2017-11-13T04:38:53.780Z,7.92
2017-11-13T04:40:08.184Z,7.92
2017-11-13T04:41:22.399Z,7.92
2017-11-13T04:42:36.710Z,7.93
2017-11-13T04:43:52.300Z,7.97
2017-11-13T04:45:06.483Z,7.98
2017-11-13T04:46:21.959Z,8
2017-11-13T04:47:36.638Z,8.01
2017-11-13T04:48:53.909Z,8.02
2017-11-13T04:50:08.607Z,8.02
2017-11-13T04:51:25.273Z,8.01
2017-11-13T04:52:39.736Z,8
2017-11-13T04:53:54.666Z,7.98
2017-11-13T04:55:08.858Z,7.97
2017-11-13T04:56:23.098Z,7.95
2017-11-13T04:57:37.450Z,7.93
2017-11-13T04:58:52.665Z,7.92
2017-11-13T05:00:06.908Z,7.9
2017-11-13T05:01:21.235Z,7.89
2017-11-13T05:02:36.012Z,7.91
2017-11-13T05:03:50.454Z,7.93
2017-11-13T05:05:04.657Z,7.97
2017-11-13T05:06:18.833Z,8
2017-11-13T05:07:33.038Z,8.04
2017-11-13T05:08:47.411Z,8.06
2017-11-13T05:10:01.651Z,8.06
2017-11-13T05:11:16.673Z,8.07
2017-11-13T05:12:30.913Z,8.06
2017-11-13T05:13:45.118Z,8.05
2017-11-13T05:15:00.347Z,8.03
2017-11-13T05:16:14.649Z,8.01
2017-11-13T05:17:29.708Z,8
2017-11-13T05:18:44.757Z,7.99
2017-11-13T05:19:58.995Z,7.99
2017-11-13T05:21:13.245Z,8
2017-11-13T05:22:28.245Z,8.03
2017-11-13T05:23:42.709Z,8.04
2017-11-13T05:24:56.910Z,8.07
2017-11-13T05:26:11.083Z,8.08
2017-11-13T05:27:25.699Z,8.08
2017-11-13T05:28:41.223Z,8.08
2017-11-13T05:29:55.452Z,8.1
2017-11-13T05:31:09.999Z,8.11
2017-11-13T05:32:24.595Z,8.11
2017-11-13T05:33:40.252Z,8.1
2017-11-13T05:34:54.444Z,8.11
2017-11-13T05:36:08.700Z,8.11
2017-11-13T05:37:23.472Z,8.11
2017-11-13T05:38:37.890Z,8.11
2017-11-13T05:39:52.064Z,8.09
2017-11-13T05:41:06.392Z,8.09
2017-11-13T05:42:20.611Z,8.06
2017-11-13T05:43:35.582Z,8.05
2017-11-13T05:44:50.220Z,8.04
2017-11-13T05:46:04.414Z,8.05
2017-11-13T05:47:18.726Z,8.03
2017-11-13T05:48:32.917Z,8.04
2017-11-13T05:49:47.197Z,8.04
2017-11-13T05:51:01.875Z,8.03
2017-11-13T05:52:16.093Z,8.04
2017-11-13T05:53:30.570Z,8.05
2017-11-13T05:54:45.476Z,8.05
2017-11-13T05:56:00.185Z,8.05
2017-11-13T05:57:14.960Z,8.03
2017-11-13T05:58:29.783Z,8.01
2017-11-13T05:59:46.149Z,8
2017-11-13T06:01:02.610Z,7.99
2017-11-13T06:02:18.211Z,8
2017-11-13T06:03:32.560Z,7.97
2017-11-13T06:04:46.809Z,7.92
2017-11-13T06:06:01.430Z,7.91
2017-11-13T06:07:15.644Z,7.89
2017-11-13T06:08:29.856Z,7.87
2017-11-13T06:09:44.301Z,7.83
2017-11-13T06:10:58.806Z,7.81
2017-11-13T06:12:13.019Z,7.8
2017-11-13T06:13:27.252Z,7.79
2017-11-13T06:14:41.492Z,7.78
2017-11-13T06:15:56.189Z,7.78
2017-11-13T06:17:10.697Z,7.81
2017-11-13T06:18:25.677Z,7.83
2017-11-13T06:19:41.520Z,7.85
2017-11-13T06:20:56.999Z,7.84
2017-11-13T06:22:17.574Z,7.87
2017-11-13T06:23:32.296Z,7.89
2017-11-13T06:24:46.993Z,7.92
2017-11-13T06:26:02.010Z,7.93
2017-11-13T06:27:17.836Z,7.95
2017-11-13T06:28:33.101Z,7.99
2017-11-13T06:29:48.893Z,8
2017-11-13T06:31:03.738Z,8.03
2017-11-13T06:32:18.011Z,8.02
2017-11-13T06:33:32.664Z,8.02
2017-11-13T06:34:47.666Z,8.04
2017-11-13T06:36:02.409Z,8.03
2017-11-13T06:37:17.260Z,8.04
2017-11-13T06:38:32.153Z,8.03
2017-11-13T06:39:46.829Z,8.05
2017-11-13T06:41:01.119Z,8.06
2017-11-13T06:42:15.595Z,8.07
2017-11-13T06:43:30.248Z,8.1
2017-11-13T06:44:44.981Z,8.13
2017-11-13T06:45:59.240Z,8.16
2017-11-13T06:47:14.326Z,8.17
2017-11-13T06:48:30.006Z,8.18
2017-11-13T06:49:44.365Z,8.19
2017-11-13T06:50:58.591Z,8.21
2017-11-13T06:52:13.304Z,8.22
2017-11-13T06:53:28.834Z,8.23
2017-11-13T06:54:43.617Z,8.25
2017-11-13T06:55:58.364Z,8.24
2017-11-13T06:57:13.636Z,8.26
2017-11-13T06:58:28.303Z,8.25
2017-11-13T06:59:43.207Z,8.29
2017-11-13T07:00:57.880Z,8.31
2017-11-13T07:02:12.558Z,8.32
2017-11-13T07:03:29.590Z,8.34
2017-11-13T07:04:44.640Z,8.37
2017-11-13T07:05:59.205Z,8.37
2017-11-13T07:07:13.432Z,8.43
2017-11-13T07:08:27.621Z,8.47
2017-11-13T07:09:42.576Z,8.48
2017-11-13T07:10:57.307Z,8.53
2017-11-13T07:12:12.293Z,8.54
2017-11-13T07:13:26.789Z,8.57
2017-11-13T07:14:41.136Z,8.59
2017-11-13T07:15:56.098Z,8.61
2017-11-13T07:17:10.435Z,8.64
2017-11-13T07:18:25.024Z,8.65
2017-11-13T07:19:39.309Z,8.66
2017-11-13T07:20:54.544Z,8.68
2017-11-13T07:22:09.091Z,8.69
2017-11-13T07:23:23.328Z,8.7
2017-11-13T07:24:38.486Z,8.73
2017-11-13T07:25:53.526Z,8.78
2017-11-13T07:27:07.778Z,8.83
2017-11-13T07:28:41.699Z,8.86
2017-11-13T07:29:56.096Z,8.88
2017-11-13T07:31:10.353Z,8.88
2017-11-13T07:32:25.421Z,8.87
2017-11-13T07:33:40.577Z,8.85
2017-11-13T07:34:55.594Z,8.81
2017-11-13T07:36:09.809Z,8.8
2017-11-13T07:37:24.022Z,8.8
2017-11-13T07:38:38.652Z,8.79
2017-11-13T07:39:53.138Z,8.79
2017-11-13T07:41:07.335Z,8.77
2017-11-13T07:42:21.566Z,8.79
2017-11-13T07:43:35.844Z,8.81
2017-11-13T07:44:50.545Z,8.83
2017-11-13T07:46:05.538Z,8.87
2017-11-13T07:47:19.760Z,8.91
2017-11-13T07:48:34.446Z,8.95
2017-11-13T07:49:48.633Z,8.99
2017-11-13T07:51:03.761Z,9
2017-11-13T07:52:18.248Z,9.04
2017-11-13T07:53:32.849Z,9.06
2017-11-13T07:54:47.054Z,9.11
2017-11-13T07:56:01.427Z,9.14
2017-11-13T07:57:15.770Z,9.16
2017-11-13T07:58:31.539Z,9.2
2017-11-13T07:59:46.476Z,9.24
2017-11-13T08:01:01.056Z,9.27
2017-11-13T08:02:15.684Z,9.32
2017-11-13T08:03:29.947Z,9.39
2017-11-13T08:04:45.038Z,9.46
2017-11-13T08:05:59.691Z,9.48
2017-11-13T08:07:15.349Z,9.53
2017-11-13T08:08:29.928Z,9.54
2017-11-13T08:09:44.167Z,9.54
2017-11-13T08:11:00.101Z,9.55
2017-11-13T08:12:14.747Z,9.58
2017-11-13T08:13:28.982Z,9.56
2017-11-13T08:14:43.229Z,9.53
2017-11-13T08:15:58.101Z,9.54
2017-11-13T08:17:13.488Z,9.54
2017-11-13T08:18:28.190Z,9.54
2017-11-13T08:19:43.132Z,9.57
2017-11-13T08:20:58.193Z,9.6
2017-11-13T08:22:12.949Z,9.67
2017-11-13T08:23:27.645Z,9.74
2017-11-13T08:24:41.864Z,9.78
2017-11-13T08:25:56.150Z,9.81
2017-11-13T08:27:10.680Z,9.84
2017-11-13T08:28:24.922Z,9.9
2017-11-13T08:29:39.180Z,9.98
2017-11-13T08:30:53.480Z,10.05
2017-11-13T08:32:08.604Z,10.12
2017-11-13T08:33:22.879Z,10.21
2017-11-13T08:34:37.142Z,10.25
2017-11-13T08:35:51.479Z,10.29
2017-11-13T08:37:06.307Z,10.31
2017-11-13T08:38:21.549Z,10.32
2017-11-13T08:39:37.996Z,10.32
2017-11-13T08:40:53.596Z,10.38
2017-11-13T08:42:08.566Z,10.4
2017-11-13T08:43:23.871Z,10.42
2017-11-13T08:44:40.416Z,10.44
2017-11-13T08:45:55.034Z,10.46
2017-11-13T08:47:09.417Z,10.46
2017-11-13T08:48:24.255Z,10.45
2017-11-13T08:49:39.276Z,10.47
2017-11-13T08:50:55.097Z,10.47
2017-11-13T08:52:10.211Z,10.49
2017-11-13T08:53:24.652Z,10.5
2017-11-13T08:54:39.608Z,10.51
2017-11-13T08:55:53.855Z,10.52
2017-11-13T08:57:08.288Z,10.52
2017-11-13T08:58:22.535Z,10.51
2017-11-13T08:59:36.770Z,10.51
2017-11-13T09:00:51.409Z,10.54
2017-11-13T09:02:06.279Z,10.52
2017-11-13T09:03:20.528Z,10.5
2017-11-13T09:04:35.799Z,10.5
2017-11-13T09:05:50.307Z,10.51
2017-11-13T09:07:06.021Z,10.51
2017-11-13T09:08:22.211Z,10.51
2017-11-13T09:09:37.476Z,10.51
2017-11-13T09:10:52.667Z,10.52
2017-11-13T09:12:07.517Z,10.56
2017-11-13T09:13:22.456Z,10.6
2017-11-13T09:14:37.878Z,10.63
2017-11-13T09:15:52.849Z,10.66
2017-11-13T09:17:07.395Z,10.67
2017-11-13T09:18:22.359Z,10.71
2017-11-13T09:19:37.052Z,10.75
2017-11-13T09:20:51.757Z,10.78
2017-11-13T09:22:06.592Z,10.8
2017-11-13T09:23:22.280Z,10.81
2017-11-13T09:24:37.124Z,10.83
2017-11-13T09:25:52.561Z,10.85
2017-11-13T09:27:07.050Z,10.87
2017-11-13T09:28:22.273Z,10.88
2017-11-13T09:29:36.539Z,10.89
2017-11-13T09:30:51.334Z,10.87
2017-11-13T09:32:05.927Z,10.84
2017-11-13T09:33:20.575Z,10.8
2017-11-13T09:34:34.877Z,10.78
2017-11-13T09:35:49.116Z,10.75
2017-11-13T09:37:03.341Z,10.72
2017-11-13T09:38:18.390Z,10.65
2017-11-13T09:39:32.906Z,10.59
2017-11-13T09:40:48.342Z,10.54
2017-11-13T09:42:03.136Z,10.46
2017-11-13T09:43:18.135Z,10.38
2017-11-13T09:44:32.676Z,10.27
2017-11-13T09:45:48.003Z,10.2
2017-11-13T09:47:02.280Z,10.18
2017-11-13T09:48:17.583Z,10.19
2017-11-13T09:49:31.756Z,10.21
2017-11-13T09:50:45.937Z,10.23
2017-11-13T09:52:00.157Z,10.31
2017-11-13T09:53:15.358Z,10.33
2017-11-13T09:54:30.172Z,10.37
2017-11-13T09:55:44.809Z,10.38
2017-11-13T09:56:58.940Z,10.39
2017-11-13T09:58:14.443Z,10.41
2017-11-13T09:59:29.611Z,10.43
2017-11-13T10:00:44.378Z,10.44
2017-11-13T10:01:58.721Z,10.47
2017-11-13T10:03:14.063Z,10.5
2017-11-13T10:04:28.672Z,10.53
2017-11-13T10:05:42.878Z,10.57
2017-11-13T10:06:57.807Z,10.62
2017-11-13T10:08:12.894Z,10.64
2017-11-13T10:09:27.649Z,10.68
2017-11-13T10:10:42.412Z,10.74
2017-11-13T10:11:56.657Z,10.77
2017-11-13T10:13:11.244Z,10.83
2017-11-13T10:14:26.254Z,10.88
2017-11-13T10:15:41.301Z,10.92
2017-11-13T10:16:56.739Z,10.95
2017-11-13T10:18:11.544Z,11.02
2017-11-13T10:19:26.538Z,11.1
2017-11-13T10:20:41.333Z,11.19
2017-11-13T10:21:57.453Z,11.27
2017-11-13T10:23:12.175Z,11.4
2017-11-13T10:24:27.282Z,11.49
2017-11-13T10:25:42.611Z,11.55
2017-11-13T10:26:57.007Z,11.61
2017-11-13T10:28:11.973Z,11.66
2017-11-13T10:29:27.200Z,11.73
2017-11-13T10:30:41.407Z,11.79
2017-11-13T10:31:55.601Z,11.84
2017-11-13T10:33:10.956Z,11.88
2017-11-13T10:34:27.107Z,11.92
2017-11-13T10:35:42.522Z,11.92
2017-11-13T10:36:58.220Z,11.88
2017-11-13T10:38:14.054Z,11.82
2017-11-13T10:39:28.804Z,11.71
2017-11-13T10:40:44.203Z,11.65
2017-11-13T10:42:00.038Z,11.59
2017-11-13T10:43:14.462Z,11.56
2017-11-13T10:44:29.592Z,11.54
2017-11-13T10:45:45.559Z,11.52
2017-11-13T10:47:00.424Z,11.5
2017-11-13T10:48:15.774Z,11.43
2017-11-13T10:49:32.302Z,11.35
2017-11-13T10:50:48.813Z,11.3
2017-11-13T10:52:04.394Z,11.26
2017-11-13T10:53:20.576Z,11.24
2017-11-13T10:54:38.548Z,11.23
2017-11-13T10:55:54.895Z,11.24
2017-11-13T10:57:10.757Z,11.27
2017-11-13T10:58:25.938Z,11.28
2017-11-13T10:59:40.577Z,11.28
2017-11-13T11:00:55.247Z,11.25
2017-11-13T11:02:10.334Z,11.18
2017-11-13T11:03:25.668Z,11.08
2017-11-13T11:04:39.988Z,11.02
2017-11-13T11:05:54.810Z,10.96
2017-11-13T11:07:09.601Z,10.94
2017-11-13T11:08:24.206Z,10.95
2017-11-13T11:09:38.601Z,10.91
2017-11-13T11:10:53.935Z,10.87
2017-11-13T11:12:08.583Z,10.79
2017-11-13T11:13:23.704Z,10.77
2017-11-13T11:14:38.363Z,10.75
2017-11-13T11:15:52.578Z,10.75
2017-11-13T11:17:06.843Z,10.76
2017-11-13T11:18:21.601Z,10.76
2017-11-13T11:19:35.891Z,10.77
2017-11-13T11:20:50.279Z,10.76
2017-11-13T11:22:05.608Z,10.73
2017-11-13T11:23:20.272Z,10.75
2017-11-13T11:24:35.418Z,10.78
2017-11-13T11:25:49.661Z,10.8
2017-11-13T11:27:05.044Z,10.82
2017-11-13T11:28:20.720Z,10.85
2017-11-13T11:29:37.963Z,10.87
2017-11-13T11:30:53.646Z,10.93
2017-11-13T11:32:09.984Z,10.99
2017-11-13T11:33:24.972Z,11.07
2017-11-13T11:34:42.336Z,11.1
2017-11-13T11:35:56.909Z,11.12
2017-11-13T11:37:12.783Z,11.14
2017-11-13T11:38:27.961Z,11.15
2017-11-13T11:39:59.636Z,11.11
2017-11-13T11:41:15.922Z,11.07
2017-11-13T11:42:30.353Z,11.05
2017-11-13T11:43:44.696Z,11.06
2017-11-13T11:44:58.861Z,11.11
2017-11-13T11:46:13.045Z,11.2
2017-11-13T11:47:28.445Z,11.31
2017-11-13T11:48:42.920Z,11.39
2017-11-13T11:49:58.386Z,11.48
2017-11-13T11:51:13.963Z,11.55
2017-11-13T11:52:29.637Z,11.61
2017-11-13T11:53:44.653Z,11.66
2017-11-13T11:54:59.472Z,11.69
2017-11-13T11:56:14.132Z,11.7
2017-11-13T11:57:29.721Z,11.7
2017-11-13T12:00:14.335Z,11.64
2017-11-13T12:01:28.525Z,11.62
2017-11-13T12:02:42.730Z,11.59
2017-11-13T12:03:57.008Z,11.6
2017-11-13T12:05:11.174Z,11.6
2017-11-13T12:06:25.574Z,11.62
2017-11-13T12:07:40.691Z,11.6
2017-11-13T12:08:55.067Z,11.59
2017-11-13T12:10:10.448Z,11.55
2017-11-13T12:11:25.877Z,11.58
2017-11-13T12:12:40.244Z,11.58
2017-11-13T12:13:56.606Z,11.58
2017-11-13T12:15:12.394Z,11.59
2017-11-13T12:16:27.124Z,11.6
2017-11-13T12:17:43.360Z,11.59
2017-11-13T12:18:57.954Z,11.58
2017-11-13T12:20:13.111Z,11.61
2017-11-13T12:21:27.947Z,11.68
2017-11-13T12:22:42.875Z,11.77
2017-11-13T12:23:57.425Z,11.81
2017-11-13T12:25:12.319Z,11.82
2017-11-13T12:26:27.411Z,11.84
2017-11-13T12:27:42.941Z,11.9
2017-11-13T12:28:57.551Z,11.96
2017-11-13T12:30:12.268Z,12.02
2017-11-13T12:31:26.432Z,12.06
2017-11-13T12:32:40.879Z,12.09
2017-11-13T12:33:55.075Z,12.1
2017-11-13T12:35:09.835Z,12.11
2017-11-13T12:36:25.212Z,12.12
2017-11-13T12:37:40.513Z,12.13
2017-11-13T12:38:55.589Z,12.16
2017-11-13T12:40:10.013Z,12.24
2017-11-13T12:41:24.930Z,12.32
2017-11-13T12:42:40.276Z,12.4
2017-11-13T12:43:54.918Z,12.43
2017-11-13T12:45:09.814Z,12.48
2017-11-13T12:46:24.002Z,12.52
2017-11-13T12:47:38.809Z,12.53
2017-11-13T12:48:54.089Z,12.49
2017-11-13T12:50:08.919Z,12.43
2017-11-13T12:51:23.092Z,12.35
2017-11-13T12:52:37.246Z,12.3
2017-11-13T12:53:52.129Z,12.3
2017-11-13T12:55:07.276Z,12.28
2017-11-13T12:56:22.938Z,12.28
2017-11-13T12:57:38.159Z,12.29
2017-11-13T12:58:53.409Z,12.35
2017-11-13T13:00:07.756Z,12.39
2017-11-13T13:01:22.198Z,12.45
2017-11-13T13:02:36.407Z,12.51
2017-11-13T13:03:52.285Z,12.59
2017-11-13T13:05:09.111Z,12.7
2017-11-13T13:06:23.388Z,12.79
2017-11-13T13:07:38.270Z,12.84
2017-11-13T13:08:52.972Z,12.89
2017-11-13T13:10:07.231Z,12.93
2017-11-13T13:11:22.081Z,12.95
2017-11-13T13:12:37.085Z,12.97
2017-11-13T13:13:51.299Z,12.98
2017-11-13T13:15:05.505Z,12.93
2017-11-13T13:16:19.869Z,12.89
2017-11-13T13:17:34.417Z,12.83
2017-11-13T13:18:48.599Z,12.79
2017-11-13T13:20:03.272Z,12.73
2017-11-13T13:21:18.001Z,12.69
2017-11-13T13:22:32.683Z,12.63
2017-11-13T13:23:46.940Z,12.58
2017-11-13T13:25:01.232Z,12.53
2017-11-13T13:26:30.866Z,12.53
2017-11-13T13:27:45.093Z,12.51
2017-11-13T13:28:59.335Z,12.48
2017-11-13T13:30:14.134Z,12.45
2017-11-13T13:31:29.219Z,12.41
2017-11-13T13:32:44.051Z,12.38
2017-11-13T13:33:58.423Z,12.36
2017-11-13T13:35:12.767Z,12.31
2017-11-13T13:36:26.961Z,12.3
2017-11-13T13:37:41.101Z,12.29
2017-11-13T13:38:55.346Z,12.29
2017-11-13T13:40:09.720Z,12.28
2017-11-13T13:41:24.059Z,12.28
2017-11-13T13:42:38.263Z,12.25
2017-11-13T13:43:52.493Z,12.23
2017-11-13T13:45:08.257Z,12.17
2017-11-13T13:46:23.949Z,12.09
2017-11-13T13:47:38.688Z,12.01
2017-11-13T13:48:53.192Z,11.93
2017-11-13T13:50:08.340Z,11.82
2017-11-13T13:51:24.451Z,11.69
2017-11-13T13:52:39.781Z,11.63
2017-11-13T13:53:55.178Z,11.57
2017-11-13T13:55:10.420Z,11.54
2017-11-13T13:56:26.580Z,11.54
2017-11-13T13:57:41.997Z,11.57
2017-11-13T13:58:58.056Z,11.62
2017-11-13T14:00:13.545Z,11.65
2017-11-13T14:01:28.678Z,11.65
2017-11-13T14:02:43.437Z,11.62
2017-11-13T14:04:00.097Z,11.58
2017-11-13T14:05:14.309Z,11.6
2017-11-13T14:06:28.472Z,11.6
2017-11-13T14:07:42.986Z,11.64
2017-11-13T14:08:57.355Z,11.68
2017-11-13T14:10:11.931Z,11.74
2017-11-13T14:11:26.777Z,11.76
2017-11-13T14:12:41.949Z,11.77
2017-11-13T14:13:57.090Z,11.76
2017-11-13T14:15:11.672Z,11.77
2017-11-13T14:16:29.252Z,11.76
2017-11-13T14:17:45.027Z,11.75
2017-11-13T14:18:59.729Z,11.76
2017-11-13T14:20:15.153Z,11.8
2017-11-13T14:21:29.516Z,11.8
2017-11-13T14:22:43.786Z,11.79
2017-11-13T14:23:59.461Z,11.81
2017-11-13T14:25:15.957Z,11.78
2017-11-13T14:26:31.222Z,11.77
2017-11-13T14:27:45.830Z,11.74
2017-11-13T14:29:00.036Z,11.71
2017-11-13T14:30:14.722Z,11.72
2017-11-13T14:31:29.276Z,11.75
2017-11-13T14:32:45.022Z,11.71
2017-11-13T14:33:59.836Z,11.68
2017-11-13T14:35:14.650Z,11.63
2017-11-13T14:36:28.982Z,11.61
2017-11-13T14:37:44.230Z,11.56
2017-11-13T14:38:59.432Z,11.47
2017-11-13T14:40:15.252Z,11.42
2017-11-13T14:41:33.085Z,11.36
2017-11-13T14:42:50.204Z,11.34
2017-11-13T14:44:07.069Z,11.35
2017-11-13T14:45:22.289Z,11.34
2017-11-13T14:46:37.767Z,11.32
2017-11-13T14:47:53.422Z,11.34
2017-11-13T14:49:07.774Z,11.35
2017-11-13T14:50:23.934Z,11.36
2017-11-13T14:51:40.043Z,11.35
2017-11-13T14:52:55.357Z,11.36
2017-11-13T14:54:10.483Z,11.35
2017-11-13T14:55:25.207Z,11.35
2017-11-13T14:56:39.489Z,11.33
2017-11-13T14:57:54.458Z,11.31
2017-11-13T14:59:11.251Z,11.31
2017-11-13T15:00:25.854Z,11.29
2017-11-13T15:01:41.147Z,11.25
2017-11-13T15:02:55.394Z,11.22
2017-11-13T15:04:09.660Z,11.16
2017-11-13T15:05:24.080Z,11.09
2017-11-13T15:06:38.498Z,11.08
2017-11-13T15:07:53.771Z,11.06
2017-11-13T15:09:07.964Z,11.06
2017-11-13T15:10:22.349Z,11.04
2017-11-13T15:11:37.011Z,11.02
2017-11-13T15:12:53.073Z,10.96
2017-11-13T15:14:07.515Z,10.95
2017-11-13T15:15:21.677Z,10.93
2017-11-13T15:16:36.052Z,10.92
2017-11-13T15:17:50.232Z,10.93
2017-11-13T15:19:04.469Z,10.93
2017-11-13T15:20:18.824Z,10.92
2017-11-13T15:21:33.181Z,10.91
2017-11-13T15:22:47.332Z,10.9
2017-11-13T15:24:01.537Z,10.91
2017-11-13T15:25:15.718Z,10.9
2017-11-13T15:26:30.879Z,10.9
2017-11-13T15:27:45.471Z,10.89
2017-11-13T15:32:55.107Z,10.83
2017-11-13T15:34:10.705Z,10.83
2017-11-13T15:35:25.369Z,10.83
2017-11-13T15:36:40.673Z,10.81
2017-11-13T15:37:55.601Z,10.78
2017-11-13T15:39:10.480Z,10.74
2017-11-13T15:40:25.834Z,10.7
2017-11-13T15:41:40.325Z,10.65
2017-11-13T15:42:56.656Z,10.61
2017-11-13T15:44:12.311Z,10.6
2017-11-13T15:45:28.774Z,10.56
2017-11-13T15:46:44.177Z,10.53
2017-11-13T15:48:13.529Z,10.49
2017-11-13T15:49:28.019Z,10.44
2017-11-13T15:50:44.171Z,10.41
2017-11-13T15:51:59.011Z,10.39
2017-11-13T15:53:13.386Z,10.38
2017-11-13T15:54:28.642Z,10.36
2017-11-13T15:55:43.553Z,10.34
2017-11-13T15:56:58.760Z,10.33
2017-11-13T15:58:29.205Z,10.31
2017-11-13T15:59:45.748Z,10.31
2017-11-13T16:01:00.580Z,10.32
2017-11-13T16:02:15.330Z,10.33
2017-11-13T16:03:29.800Z,10.33
2017-11-13T16:04:44.327Z,10.32
2017-11-13T16:06:00.290Z,10.31
2017-11-13T16:07:16.311Z,10.32
2017-11-13T16:08:31.500Z,10.3
2017-11-13T16:09:46.700Z,10.28
2017-11-13T16:11:03.485Z,10.25
2017-11-13T16:12:18.562Z,10.22
2017-11-13T16:13:34.182Z,10.19
2017-11-13T16:14:49.957Z,10.15
2017-11-13T16:16:06.474Z,10.11
2017-11-13T16:17:36.112Z,10.09
2017-11-13T16:18:52.480Z,10.05
2017-11-13T16:20:07.098Z,10.01
2017-11-13T16:21:23.126Z,9.94
2017-11-13T16:22:38.648Z,9.93
2017-11-13T16:23:53.017Z,9.87
2017-11-13T16:25:07.854Z,9.85
2017-11-13T16:26:22.969Z,9.79
2017-11-13T16:27:37.999Z,9.72
2017-11-13T16:28:53.589Z,9.68
2017-11-13T16:30:08.926Z,9.61
2017-11-13T16:31:23.773Z,9.57
2017-11-13T16:32:38.539Z,9.53
2017-11-13T16:33:52.910Z,9.46
2017-11-13T16:35:07.636Z,9.44
2017-11-13T16:36:23.932Z,9.41
2017-11-13T16:37:38.164Z,9.39
2017-11-13T16:38:54.101Z,9.38
2017-11-13T16:40:09.470Z,9.38